Time;durP1;ratioP1;P1;durP2;ratioP2;P2;SDS_P1;SDS_P2;PMS_P1;PMS_P2;Temp;Humidity;BMP_temperature;BMP_pressure;BME280_temperature;BME280_humidity;BME280_pressure;Samples;Min_cycle;Max_cycle;Signal;HPM_P1;HPM_P2
2023/04/28 00:01:18;;;;;;;2.75;0.98;;;;;;;9.00;76.42;101127.22;5027911;28;20112;-64
2023/04/28 00:03:43;;;;;;;2.35;1.17;;;;;;;8.93;76.58;101121.63;5030580;28;20037;-64
2023/04/28 00:06:10;;;;;;;2.47;1.17;;;;;;;8.97;76.29;101133.28;5032299;28;20040;-64
2023/04/28 00:08:35;;;;;;;1.73;1.10;;;;;;;9.03;76.15;101131.94;5030806;28;20064;-65
2023/04/28 00:11:01;;;;;;;1.48;0.85;;;;;;;8.97;76.02;101127.09;5046849;28;20045;-65
2023/04/28 00:13:26;;;;;;;2.65;1.25;;;;;;;8.89;76.12;101131.44;5036803;28;20033;-65
2023/04/28 00:15:53;;;;;;;1.30;1.20;;;;;;;8.94;76.28;101120.47;5029621;28;20061;-64
2023/04/28 00:18:19;;;;;;;1.92;1.40;;;;;;;8.71;76.54;101113.94;5033223;28;20063;-65
2023/04/28 00:20:45;;;;;;;0.98;0.90;;;;;;;8.72;76.91;101117.41;5026377;28;20108;-65
2023/04/28 00:23:10;;;;;;;0.88;0.60;;;;;;;8.74;76.72;101107.91;5031429;28;20132;-65
2023/04/28 00:25:35;;;;;;;2.35;1.30;;;;;;;8.69;76.77;101110.78;5032272;28;20026;-65
2023/04/28 00:28:01;;;;;;;2.35;1.17;;;;;;;8.53;77.21;101111.75;5029445;28;20488;-65
2023/04/28 00:30:28;;;;;;;0.93;0.82;;;;;;;8.52;77.28;101099.41;5044669;28;20378;-66
2023/04/28 00:32:54;;;;;;;1.40;1.20;;;;;;;8.50;77.37;101110.50;5035473;28;20033;-65
2023/04/28 00:35:20;;;;;;;2.08;1.05;;;;;;;8.51;77.45;101097.88;5026177;28;20448;-64
2023/04/28 00:37:46;;;;;;;1.67;0.75;;;;;;;8.52;77.07;101099.41;5040126;28;20021;-64
2023/04/28 00:40:12;;;;;;;7.10;0.70;;;;;;;8.48;77.91;101101.97;5026923;28;20127;-65
2023/04/28 00:42:37;;;;;;;1.42;1.17;;;;;;;8.40;78.02;101102.06;5019341;28;20033;-64
2023/04/28 00:45:05;;;;;;;1.55;1.38;;;;;;;8.48;78.00;101099.28;5042900;28;20068;-64
2023/04/28 00:47:35;;;;;;;0.80;0.65;;;;;;;8.50;78.37;101097.06;5028810;28;20540;-65
2023/04/28 00:50:07;;;;;;;4.45;1.10;;;;;;;8.53;77.78;101093.75;5032527;28;20032;-66
2023/04/28 00:52:52;;;;;;;2.03;1.43;;;;;;;8.63;77.22;101085.25;5032544;28;20528;-65
2023/04/28 00:55:18;;;;;;;1.48;0.85;;;;;;;8.58;77.32;101092.72;4958118;28;20078;-65
2023/04/28 00:57:44;;;;;;;1.33;1.17;;;;;;;8.46;77.56;101079.28;4941197;29;20044;-64
2023/04/28 01:00:13;;;;;;;3.08;1.60;;;;;;;8.46;77.30;101085.41;4940013;28;20448;-65
2023/04/28 01:02:39;;;;;;;1.25;0.90;;;;;;;8.43;77.88;101080.72;4932557;29;20046;-65
2023/04/28 01:05:05;;;;;;;3.15;1.58;;;;;;;8.34;77.97;101088.06;4956350;28;20035;-65
2023/04/28 01:07:33;;;;;;;1.83;1.20;;;;;;;8.30;77.74;101076.44;4955407;29;20071;-65
2023/04/28 01:09:59;;;;;;;1.70;1.10;;;;;;;8.22;78.39;101063.84;4951560;29;20034;-65
2023/04/28 01:12:29;;;;;;;1.88;1.15;;;;;;;8.17;78.57;101069.38;4954903;28;20097;-65
2023/04/28 01:14:56;;;;;;;1.50;0.90;;;;;;;8.12;78.71;101069.59;4951702;29;20059;-65
2023/04/28 01:17:21;;;;;;;0.90;0.73;;;;;;;8.09;78.70;101072.94;4946955;28;20082;-65
2023/04/28 01:19:47;;;;;;;1.17;1.00;;;;;;;8.11;78.97;101068.00;4951441;28;20453;-65
2023/04/28 01:22:15;;;;;;;1.15;0.75;;;;;;;8.09;78.85;101072.94;4957343;28;20030;-65
2023/04/28 01:24:41;;;;;;;1.38;0.93;;;;;;;8.08;79.11;101071.34;4951818;29;20027;-65
2023/04/28 01:27:08;;;;;;;1.48;1.05;;;;;;;8.08;78.57;101068.69;4952156;29;20483;-65
2023/04/28 01:29:35;;;;;;;0.82;0.80;;;;;;;8.08;78.51;101069.47;4947950;29;20050;-65
2023/04/28 01:32:01;;;;;;;1.02;1.00;;;;;;;8.08;78.71;101058.75;4979223;28;20041;-65
2023/04/28 01:34:26;;;;;;;1.52;1.02;;;;;;;8.11;78.78;101060.75;5033675;28;20083;-65
2023/04/28 01:36:54;;;;;;;0.90;0.90;;;;;;;8.16;78.36;101060.56;5024609;28;20038;-65
2023/04/28 01:39:19;;;;;;;0.80;0.80;;;;;;;8.24;77.76;101053.56;5024856;28;20037;-65
2023/04/28 01:41:45;;;;;;;1.90;1.67;;;;;;;8.05;78.73;101045.97;5040453;28;20029;-65
2023/04/28 01:44:11;;;;;;;1.48;1.38;;;;;;;8.06;78.47;101050.22;5039608;28;20048;-65
2023/04/28 01:46:37;;;;;;;0.82;0.65;;;;;;;7.99;78.64;101057.25;5031451;28;20444;-65
2023/04/28 01:49:02;;;;;;;2.75;1.33;;;;;;;7.96;79.16;101049.84;5034701;28;20036;-65
2023/04/28 01:51:28;;;;;;;1.98;1.23;;;;;;;7.92;79.38;101049.69;5036207;28;20033;-65
2023/04/28 01:53:53;;;;;;;1.40;1.00;;;;;;;7.91;79.45;101042.00;5032042;28;20033;-65
2023/04/28 01:56:23;;;;;;;0.68;0.68;;;;;;;7.91;79.21;101048.16;5031518;28;20029;-65
2023/04/28 01:58:50;;;;;;;2.58;0.90;;;;;;;7.90;79.31;101043.88;5021172;28;20040;-65
2023/04/28 02:01:16;;;;;;;2.70;1.63;;;;;;;7.88;79.49;101043.41;5029116;28;20397;-65
2023/04/28 02:03:42;;;;;;;1.17;1.08;;;;;;;7.94;79.04;101041.31;5039308;28;20029;-65
2023/04/28 02:06:07;;;;;;;0.90;0.90;;;;;;;7.99;79.12;101036.53;5031346;28;20064;-65
2023/04/28 02:08:34;;;;;;;1.70;1.25;;;;;;;7.99;78.91;101033.88;5033023;28;20052;-64
2023/04/28 02:11:00;;;;;;;3.38;1.63;;;;;;;7.98;79.20;101031.53;5035892;28;20120;-65
2023/04/28 02:13:26;;;;;;;0.88;0.85;;;;;;;7.96;78.42;101037.22;5036726;28;20580;-64
2023/04/28 02:15:52;;;;;;;2.08;1.23;;;;;;;7.98;78.28;101026.16;5014502;28;20049;-65
2023/04/28 02:18:19;;;;;;;2.22;1.15;;;;;;;7.91;78.81;101020.53;5036795;28;20041;-65
2023/04/28 02:20:45;;;;;;;3.63;1.65;;;;;;;7.87;78.55;101019.63;5035009;28;20477;-65
2023/04/28 02:23:10;;;;;;;8.20;1.15;;;;;;;7.97;78.12;101029.97;5041307;28;20063;-65
2023/04/28 02:25:36;;;;;;;1.92;1.30;;;;;;;8.01;78.37;101025.53;5022549;28;20397;-64
2023/04/28 02:28:02;;;;;;;1.40;1.10;;;;;;;7.97;78.17;101019.25;5030472;28;20037;-64
2023/04/28 02:30:28;;;;;;;3.35;1.67;;;;;;;7.95;78.13;101024.16;5036440;28;20481;-65
2023/04/28 02:32:54;;;;;;;2.50;1.35;;;;;;;7.92;78.33;101017.53;5035030;28;20033;-64
2023/04/28 02:35:20;;;;;;;1.73;0.95;;;;;;;7.93;78.38;101015.63;5029403;28;20169;-63
2023/04/28 02:37:46;;;;;;;1.40;0.75;;;;;;;7.81;78.21;101012.88;5036261;28;20032;-64
2023/04/28 02:40:11;;;;;;;0.93;0.80;;;;;;;7.81;78.31;101012.88;5037001;28;20030;-65
2023/04/28 02:42:37;;;;;;;2.42;1.42;;;;;;;7.76;78.53;101005.06;5028007;28;20390;-64
2023/04/28 02:45:03;;;;;;;6.10;1.17;;;;;;;7.72;78.52;101002.25;5048382;28;20048;-65
2023/04/28 02:47:28;;;;;;;2.20;0.98;;;;;;;7.63;79.04;101012.22;5031458;28;20038;-65
2023/04/28 02:49:53;;;;;;;1.30;1.17;;;;;;;7.66;78.95;101008.91;5030531;28;20021;-65
2023/04/28 02:52:22;;;;;;;5.13;1.50;;;;;;;7.72;78.59;101002.25;5030507;28;20065;-64
2023/04/28 02:54:48;;;;;;;1.67;1.08;;;;;;;7.72;78.81;100996.09;5027126;28;20065;-64
2023/04/28 02:57:16;;;;;;;1.33;0.85;;;;;;;7.69;79.02;100996.72;5015348;28;20021;-65
2023/04/28 02:59:42;;;;;;;1.30;1.10;;;;;;;7.58;78.72;100987.50;5026652;28;20078;-65
2023/04/28 03:02:08;;;;;;;1.88;1.08;;;;;;;7.59;79.17;100992.53;5037262;28;20567;-65
2023/04/28 03:04:33;;;;;;;2.90;1.20;;;;;;;7.59;78.67;100986.41;5031568;28;20112;-65
2023/04/28 03:06:58;;;;;;;1.58;0.95;;;;;;;7.64;79.24;100980.84;5020615;28;20029;-64
2023/04/28 03:09:24;;;;;;;0.95;0.95;;;;;;;7.62;78.27;100972.34;5036842;28;20445;-65
2023/04/28 03:11:50;;;;;;;1.77;1.23;;;;;;;7.52;79.25;100970.84;5033427;28;20033;-64
2023/04/28 03:14:15;;;;;;;1.77;0.93;;;;;;;7.55;79.32;100958.72;5029424;28;20040;-64
2023/04/28 03:16:42;;;;;;;2.05;1.20;;;;;;;7.44;79.54;100952.94;5027740;28;20586;-65
2023/04/28 03:19:07;;;;;;;1.00;0.93;;;;;;;7.37;79.73;100965.28;5029782;28;20025;-65
2023/04/28 03:21:33;;;;;;;2.20;1.25;;;;;;;7.52;79.46;100959.34;5032351;28;20037;-64
2023/04/28 03:23:58;;;;;;;1.65;1.25;;;;;;;7.58;78.49;100950.00;5026883;28;20512;-64
2023/04/28 03:26:24;;;;;;;1.33;1.00;;;;;;;7.57;78.42;100953.81;5028422;28;20029;-65
2023/04/28 03:28:51;;;;;;;1.25;0.98;;;;;;;7.64;78.47;100960.22;5030916;28;20025;-64
2023/04/28 03:31:17;;;;;;;1.15;0.93;;;;;;;7.52;78.95;100956.66;5029563;28;20041;-65
2023/04/28 03:33:45;;;;;;;1.33;1.00;;;;;;;7.46;78.69;100942.69;5046744;28;20029;-65
2023/04/28 03:36:11;;;;;;;1.10;0.80;;;;;;;7.56;78.31;100944.97;5033462;28;20021;-64
2023/04/28 03:38:37;;;;;;;1.65;1.20;;;;;;;7.42;78.83;100941.75;5039516;28;20028;-65
2023/04/28 03:41:03;;;;;;;2.38;0.90;;;;;;;7.43;79.17;100939.88;5034543;28;20052;-65
2023/04/28 03:43:28;;;;;;;0.50;0.50;;;;;;;7.37;79.87;100943.84;5021518;28;20045;-64
2023/04/28 03:46:13;;;;;;;1.35;1.25;;;;;;;7.50;79.09;100935.56;5034263;28;20033;-64
2023/04/28 03:48:38;;;;;;;2.83;1.92;;;;;;;7.46;78.57;100923.94;5007403;28;20029;-64
2023/04/28 03:51:04;;;;;;;0.65;0.50;;;;;;;7.43;78.92;100923.81;5044832;28;20136;-64
2023/04/28 03:53:30;;;;;;;1.10;1.05;;;;;;;7.24;79.00;100925.03;5028168;28;20022;-64
2023/04/28 03:55:55;;;;;;;2.97;1.23;;;;;;;7.23;79.61;100922.66;5028551;28;20535;-64
2023/04/28 03:58:25;;;;;;;3.90;1.67;;;;;;;7.09;80.59;100924.81;5024516;28;20034;-64
2023/04/28 04:00:50;;;;;;;2.20;1.55;;;;;;;7.22;80.49;100924.56;5043526;28;20037;-64
2023/04/28 04:03:16;;;;;;;1.20;0.98;;;;;;;7.30;79.96;100926.41;5046701;28;20695;-64
2023/04/28 04:05:42;;;;;;;1.00;1.00;;;;;;;7.21;79.61;100919.53;5045151;28;20060;-64
2023/04/28 04:08:08;;;;;;;1.73;1.13;;;;;;;7.40;79.30;100925.22;5041096;28;20061;-64
2023/04/28 04:10:33;;;;;;;1.73;0.98;;;;;;;7.43;78.80;100921.13;5046403;28;20436;-64
2023/04/28 04:12:59;;;;;;;2.45;1.35;;;;;;;7.37;79.22;100919.75;5031144;28;20034;-64
2023/04/28 04:15:24;;;;;;;2.60;1.10;;;;;;;7.27;79.78;100920.91;5028826;28;20112;-64
2023/04/28 04:17:51;;;;;;;1.15;0.70;;;;;;;7.21;79.55;100914.97;5029453;28;20032;-64
2023/04/28 04:20:16;;;;;;;2.42;1.13;;;;;;;7.01;80.45;100921.06;5040484;28;20033;-64
2023/04/28 04:22:43;;;;;;;1.08;1.02;;;;;;;7.18;80.18;100906.81;5032389;28;20040;-64
2023/04/28 04:25:09;;;;;;;1.13;0.90;;;;;;;7.24;80.03;100910.84;5006966;28;20390;-64
2023/04/28 04:27:34;;;;;;;2.17;0.90;;;;;;;7.33;80.17;100908.91;5028120;28;20363;-64
2023/04/28 04:30:00;;;;;;;0.90;0.90;;;;;;;7.34;79.48;100905.09;5031762;28;20044;-64
2023/04/28 04:32:26;;;;;;;1.00;1.00;;;;;;;7.31;79.35;100895.06;5035446;28;20397;-64
2023/04/28 04:34:52;;;;;;;1.00;0.98;;;;;;;7.32;79.80;100904.63;5025445;28;20099;-64
2023/04/28 04:37:18;;;;;;;1.13;0.95;;;;;;;7.46;79.44;100904.38;5045122;28;20057;-64
2023/04/28 04:39:59;;;;;;;1.42;1.10;;;;;;;7.29;79.56;100902.63;5045149;28;20037;-64
2023/04/28 04:42:25;;;;;;;1.33;0.98;;;;;;;7.29;78.93;100892.72;5025239;28;20044;-64
2023/04/28 04:45:12;;;;;;;0.80;0.80;;;;;;;7.41;79.16;100901.91;5020457;28;20029;-64
2023/04/28 04:47:39;;;;;;;2.08;1.02;;;;;;;7.44;79.49;100899.34;5037222;28;20033;-64
2023/04/28 04:50:05;;;;;;;1.08;0.93;;;;;;;7.42;79.83;100893.53;5023256;28;20493;-64
2023/04/28 04:52:31;;;;;;;1.67;1.05;;;;;;;7.49;79.22;100887.66;5021920;28;20030;-64
2023/04/28 04:54:57;;;;;;;2.83;0.70;;;;;;;7.44;79.78;100887.84;5040839;28;20055;-64
2023/04/28 04:57:23;;;;;;;0.60;0.60;;;;;;;7.47;78.56;100884.53;5053588;28;20485;-65
2023/04/28 05:00:11;;;;;;;2.00;0.77;;;;;;;7.44;78.98;100887.84;5017393;28;20037;-65
2023/04/28 05:02:37;;;;;;;1.50;1.10;;;;;;;7.45;78.57;100873.34;5027300;28;20116;-65
2023/04/28 05:05:05;;;;;;;1.17;1.00;;;;;;;7.54;78.50;100876.75;5039764;28;20033;-65
2023/04/28 05:07:30;;;;;;;1.17;1.05;;;;;;;7.55;78.33;100873.72;5020866;28;20042;-65
2023/04/28 05:09:56;;;;;;;2.25;1.50;;;;;;;7.63;77.91;100872.88;5039536;28;20090;-65
2023/04/28 05:12:22;;;;;;;1.48;0.90;;;;;;;7.78;77.78;100871.47;5017191;28;20033;-65
2023/04/28 05:14:48;;;;;;;4.72;1.13;;;;;;;7.83;76.89;100868.59;5023498;28;20025;-66
2023/04/28 05:17:14;;;;;;;2.33;1.10;;;;;;;7.90;77.58;100864.25;5008704;28;21568;-66
2023/04/28 05:19:40;;;;;;;0.75;0.50;;;;;;;7.91;77.43;100865.84;5024085;28;20033;-65
2023/04/28 05:22:06;;;;;;;7.72;1.20;;;;;;;7.98;76.75;100865.28;5035099;28;20041;-66
2023/04/28 05:24:34;;;;;;;2.67;1.23;;;;;;;8.01;76.99;100870.00;5027779;28;20025;-66
2023/04/28 05:27:01;;;;;;;0.98;0.88;;;;;;;8.18;76.13;100865.22;5007687;28;20029;-66
2023/04/28 05:29:27;;;;;;;1.15;0.77;;;;;;;8.34;74.98;100875.31;5037399;28;20029;-64
2023/04/28 05:31:52;;;;;;;1.80;1.13;;;;;;;8.59;75.04;100871.53;5028734;28;20056;-64
2023/04/28 05:34:20;;;;;;;0.47;0.47;;;;;;;8.68;73.67;100862.25;5020322;28;20025;-64
2023/04/28 05:36:46;;;;;;;1.98;1.33;;;;;;;8.70;71.71;100865.38;5027645;28;20116;-66
2023/04/28 05:39:12;;;;;;;0.93;0.70;;;;;;;8.85;71.36;100859.31;5027737;28;20034;-64
2023/04/28 05:41:39;;;;;;;1.40;1.05;;;;;;;8.81;71.13;100858.44;5023635;28;20034;-64
2023/04/28 05:44:08;;;;;;;2.33;1.33;;;;;;;9.11;70.39;100858.94;5025907;28;20409;-64
2023/04/28 05:46:33;;;;;;;2.95;1.67;;;;;;;9.14;68.22;100860.19;4999053;28;20159;-65
2023/04/28 05:48:59;;;;;;;0.60;0.60;;;;;;;9.34;68.27;100856.53;5023156;28;20121;-64
2023/04/28 05:51:28;;;;;;;1.50;0.60;;;;;;;9.69;66.98;100852.13;5028077;28;20417;-65
2023/04/28 05:53:54;;;;;;;2.55;0.88;;;;;;;9.91;65.37;100846.97;5025959;28;20022;-65
2023/04/28 05:56:20;;;;;;;0.90;0.77;;;;;;;10.18;65.21;100847.28;5027717;28;20026;-65
2023/04/28 05:58:49;;;;;;;0.52;0.52;;;;;;;10.37;63.82;100844.69;5044643;28;20143;-64
2023/04/28 06:01:15;;;;;;;1.00;0.68;;;;;;;10.46;62.44;100843.38;5031462;28;20026;-65
2023/04/28 06:03:41;;;;;;;1.05;0.50;;;;;;;10.47;61.69;100836.09;5039912;28;20041;-65
2023/04/28 06:06:07;;;;;;;0.88;0.70;;;;;;;10.60;60.67;100851.78;5028502;28;20041;-65
2023/04/28 06:08:33;;;;;;;0.70;0.70;;;;;;;10.74;60.80;100849.41;5027617;28;20025;-65
2023/04/28 06:10:58;;;;;;;2.25;1.10;;;;;;;10.95;60.05;100846.41;5030864;28;20508;-64
2023/04/28 06:13:26;;;;;;;0.70;0.70;;;;;;;11.08;59.38;100839.75;5043714;28;20022;-64
2023/04/28 06:15:52;;;;;;;0.52;0.52;;;;;;;10.98;58.46;100836.84;5046544;28;20033;-64
2023/04/28 06:18:17;;;;;;;1.45;0.82;;;;;;;10.98;57.61;100834.13;5032407;28;20052;-64
2023/04/28 06:20:43;;;;;;;1.80;0.95;;;;;;;10.98;57.37;100836.84;5032397;28;20029;-64
2023/04/28 06:23:08;;;;;;;2.97;0.50;;;;;;;11.25;57.86;100827.78;5016511;28;20128;-65
2023/04/28 06:25:40;;;;;;;0.90;0.68;;;;;;;11.39;57.39;100830.75;5034301;28;20059;-65
2023/04/28 06:28:06;;;;;;;0.60;0.60;;;;;;;11.52;56.84;100835.66;5029356;28;20505;-65
2023/04/28 06:30:33;;;;;;;0.85;0.65;;;;;;;11.73;56.75;100829.91;5024338;28;20037;-65
2023/04/28 06:33:02;;;;;;;0.40;0.40;;;;;;;12.01;56.41;100841.22;5043176;28;20037;-65
2023/04/28 06:35:27;;;;;;;0.40;0.40;;;;;;;12.07;53.80;100847.09;5030439;28;20378;-66
2023/04/28 06:37:53;;;;;;;1.00;0.65;;;;;;;11.89;53.22;100844.06;5028390;28;20037;-65
2023/04/28 06:40:19;;;;;;;0.38;0.38;;;;;;;12.02;53.74;100842.75;5045533;28;20033;-65
2023/04/28 06:42:50;;;;;;;0.30;0.30;;;;;;;12.29;53.11;100832.81;5027169;28;20075;-64
2023/04/28 06:45:22;;;;;;;;;;;;;;;12.50;52.99;100839.31;5013756;28;20038;-65
2023/04/28 06:47:47;;;;;;;0.35;0.30;;;;;;;12.48;52.28;100830.81;5027964;28;19921;-65
2023/04/28 06:50:12;;;;;;;3.70;0.98;;;;;;;12.69;51.54;100828.44;5043080;28;20719;-64
2023/04/28 06:52:38;;;;;;;0.70;0.63;;;;;;;12.68;51.03;100831.47;5030938;28;20086;-65
2023/04/28 06:55:10;;;;;;;0.70;0.65;;;;;;;12.64;50.83;100830.66;5024458;28;20136;-65
2023/04/28 06:57:36;;;;;;;0.85;0.43;;;;;;;12.56;50.95;100824.34;5032525;28;20030;-64
2023/04/28 07:00:03;;;;;;;0.88;0.45;;;;;;;12.72;50.68;100821.50;5027878;28;20381;-65
2023/04/28 07:02:29;;;;;;;0.55;0.32;;;;;;;12.92;49.74;100822.16;5025091;28;20044;-65
2023/04/28 07:04:54;;;;;;;0.63;0.45;;;;;;;13.02;49.83;100819.63;5030210;28;20042;-65
2023/04/28 07:07:20;;;;;;;0.20;0.20;;;;;;;13.44;50.38;100827.47;5042865;28;20040;-65
2023/04/28 07:09:45;;;;;;;0.20;0.20;;;;;;;13.60;50.33;100825.34;5023888;28;20347;-64
2023/04/28 07:12:11;;;;;;;0.68;0.45;;;;;;;13.87;49.12;100826.00;5044774;28;20025;-64
2023/04/28 07:14:36;;;;;;;0.60;0.60;;;;;;;13.55;47.66;100812.13;5029049;28;20026;-65
2023/04/28 07:17:02;;;;;;;0.75;0.75;;;;;;;13.47;48.39;100824.06;5029604;28;20059;-65
2023/04/28 07:19:27;;;;;;;0.60;0.60;;;;;;;13.31;47.63;100799.13;5029076;28;20037;-64
2023/04/28 07:21:55;;;;;;;0.75;0.52;;;;;;;13.48;48.36;100796.63;5027754;28;20045;-65
2023/04/28 07:24:22;;;;;;;0.15;0.15;;;;;;;13.43;47.34;100801.59;5029533;28;20426;-65
2023/04/28 07:26:48;;;;;;;0.65;0.60;;;;;;;13.28;49.69;100803.34;5028858;28;20060;-64
2023/04/28 07:29:14;;;;;;;0.30;0.30;;;;;;;13.00;49.43;100799.50;5026860;28;20033;-65
2023/04/28 07:31:39;;;;;;;0.40;0.40;;;;;;;13.37;49.45;100798.44;5027890;28;20048;-65
2023/04/28 07:34:05;;;;;;;1.38;0.47;;;;;;;13.57;49.03;100807.94;5029127;28;20029;-65
2023/04/28 07:36:31;;;;;;;0.50;0.35;;;;;;;13.76;48.54;100793.44;5028911;28;20120;-65
2023/04/28 07:39:00;;;;;;;1.05;0.40;;;;;;;14.15;47.81;100810.03;5024914;28;20118;-66
2023/04/28 07:41:28;;;;;;;0.80;0.50;;;;;;;14.29;47.50;100794.69;5025472;28;20026;-64
2023/04/28 07:43:54;;;;;;;0.30;0.20;;;;;;;14.57;46.86;100796.81;5028632;28;20095;-65
2023/04/28 07:46:19;;;;;;;0.57;0.55;;;;;;;14.88;48.32;100792.72;5028515;28;20469;-64
2023/04/28 07:48:45;;;;;;;1.10;0.50;;;;;;;15.11;46.85;100794.00;5024256;28;20115;-65
2023/04/28 07:51:10;;;;;;;0.57;0.40;;;;;;;15.38;45.64;100797.97;5029741;28;20033;-64
2023/04/28 07:53:36;;;;;;;1.00;0.52;;;;;;;15.46;46.03;100798.03;5026931;28;20037;-66
2023/04/28 07:56:02;;;;;;;0.40;0.40;;;;;;;15.16;45.60;100792.84;5036204;28;20090;-66
2023/04/28 07:58:27;;;;;;;0.50;0.40;;;;;;;14.39;46.28;100788.56;5026203;28;20037;-65
2023/04/28 08:00:56;;;;;;;0.40;0.32;;;;;;;14.91;46.36;100781.09;5026341;28;20045;-66
2023/04/28 08:03:21;;;;;;;0.45;0.45;;;;;;;14.96;46.24;100783.47;5029449;28;20025;-66
2023/04/28 08:05:47;;;;;;;1.58;0.40;;;;;;;15.36;46.81;100788.66;5046875;28;20100;-66
2023/04/28 08:08:12;;;;;;;0.52;0.30;;;;;;;15.71;45.14;100780.63;5029709;28;20040;-66
2023/04/28 08:10:40;;;;;;;0.47;0.30;;;;;;;15.80;45.86;100777.53;5027715;28;20033;-66
2023/04/28 08:13:09;;;;;;;0.73;0.40;;;;;;;15.96;43.24;100783.38;5025748;28;20512;-66
2023/04/28 08:15:35;;;;;;;0.50;0.40;;;;;;;15.71;43.27;100783.34;5022803;28;20037;-66
2023/04/28 08:18:01;;;;;;;0.52;0.20;;;;;;;15.44;43.59;100776.69;5027942;28;20033;-66
2023/04/28 08:20:26;;;;;;;1.25;0.55;;;;;;;15.85;43.27;100783.34;5023639;28;20087;-66
2023/04/28 08:22:51;;;;;;;0.52;0.40;;;;;;;15.90;43.81;100782.97;5030465;28;20056;-66
2023/04/28 08:25:17;;;;;;;0.80;0.30;;;;;;;15.92;43.47;100779.88;5045508;28;20033;-67
2023/04/28 08:27:43;;;;;;;0.30;0.20;;;;;;;15.93;43.53;100771.31;5045017;28;20040;-66
2023/04/28 08:30:08;;;;;;;0.40;0.30;;;;;;;16.07;43.42;100771.31;5028950;28;20084;-66
2023/04/28 08:32:34;;;;;;;2.13;0.73;;;;;;;15.86;43.35;100776.75;5031429;28;20425;-63
2023/04/28 08:35:00;;;;;;;1.42;0.57;;;;;;;15.95;43.86;100760.84;5031803;28;20029;-64
2023/04/28 08:37:26;;;;;;;0.70;0.45;;;;;;;16.01;43.88;100772.88;5030540;28;20080;-63
2023/04/28 08:40:00;;;;;;;0.25;0.20;;;;;;;16.11;43.46;100782.97;5043291;28;20124;-64
2023/04/28 08:42:29;;;;;;;0.28;0.17;;;;;;;16.07;43.67;100778.69;5032316;28;20112;-64
2023/04/28 08:44:58;;;;;;;6.28;0.70;;;;;;;16.27;42.77;100771.72;5030461;28;20394;-64
2023/04/28 08:47:31;;;;;;;0.43;0.30;;;;;;;16.31;43.51;100768.97;5032426;28;20029;-64
2023/04/28 08:50:02;;;;;;;0.45;0.25;;;;;;;16.41;43.07;100773.63;5022757;28;20401;-64
2023/04/28 08:52:29;;;;;;;0.80;0.60;;;;;;;16.46;42.78;100770.50;5026882;28;20107;-64
2023/04/28 08:54:57;;;;;;;0.63;0.40;;;;;;;16.46;43.04;100762.34;5025071;28;20055;-66
2023/04/28 08:57:31;;;;;;;0.90;0.45;;;;;;;16.63;42.05;100765.06;5029882;28;20048;-64
2023/04/28 08:59:57;;;;;;;1.35;0.50;;;;;;;16.25;42.90;100763.16;5047857;28;20091;-66
2023/04/28 09:02:23;;;;;;;0.55;0.55;;;;;;;16.30;42.85;100756.56;5029676;28;20033;-66
2023/04/28 09:04:48;;;;;;;0.30;0.30;;;;;;;16.23;42.78;100751.91;5024531;28;20040;-65
2023/04/28 09:07:14;;;;;;;0.98;0.60;;;;;;;16.33;43.00;100753.84;5029777;28;20036;-64
2023/04/28 09:09:39;;;;;;;0.47;0.47;;;;;;;16.49;42.82;100742.59;5022760;28;20022;-66
2023/04/28 09:12:06;;;;;;;2.15;0.80;;;;;;;16.30;42.72;100745.69;5026076;28;20034;-63
2023/04/28 09:14:33;;;;;;;1.30;0.63;;;;;;;16.59;43.13;100745.25;5047939;28;20529;-66
2023/04/28 09:17:00;;;;;;;0.50;0.30;;;;;;;16.21;42.52;100733.28;5030442;28;20029;-66
2023/04/28 09:19:33;;;;;;;1.20;0.70;;;;;;;16.09;43.50;100730.19;5028641;28;20032;-66
2023/04/28 09:21:59;;;;;;;1.15;0.70;;;;;;;16.36;43.32;100728.59;5025209;28;20439;-64
2023/04/28 09:24:29;;;;;;;0.77;0.50;;;;;;;16.34;42.85;100730.16;5030097;28;20112;-67
2023/04/28 09:26:55;;;;;;;0.35;0.35;;;;;;;16.12;43.88;100722.00;5030924;28;20050;-66
2023/04/28 09:29:20;;;;;;;1.23;0.90;;;;;;;16.10;43.26;100724.34;5029036;28;20175;-66
2023/04/28 09:31:48;;;;;;;0.30;0.30;;;;;;;16.15;44.59;100721.25;5029404;28;20060;-66
2023/04/28 09:34:14;;;;;;;0.70;0.52;;;;;;;16.02;43.69;100714.69;5029551;28;20111;-66
2023/04/28 09:36:40;;;;;;;1.50;0.65;;;;;;;16.14;43.87;100722.41;5029703;28;20382;-65
2023/04/28 09:39:05;;;;;;;1.38;0.57;;;;;;;16.08;42.01;100721.28;5031251;28;20033;-66
2023/04/28 09:41:39;;;;;;;1.65;0.40;;;;;;;16.46;42.75;100710.69;5030362;28;20041;-66
2023/04/28 09:44:15;;;;;;;0.63;0.38;;;;;;;16.60;42.61;100718.84;5021156;28;20031;-63
2023/04/28 09:46:43;;;;;;;0.60;0.50;;;;;;;16.87;42.88;100712.53;4994455;28;1099239;-64
2023/04/28 09:49:09;;;;;;;0.52;0.40;;;;;;;17.12;42.87;100715.13;5031623;28;20029;-63
2023/04/28 09:51:35;;;;;;;1.05;0.65;;;;;;;17.24;41.76;100711.94;5022103;28;20039;-63
2023/04/28 09:54:01;;;;;;;0.50;0.32;;;;;;;17.31;42.38;100713.84;5029704;28;20025;-64
2023/04/28 09:56:28;;;;;;;0.70;0.50;;;;;;;17.24;42.01;100714.69;5028268;28;20045;-63
2023/04/28 09:58:56;;;;;;;0.68;0.65;;;;;;;17.27;42.57;100700.25;5025269;28;20037;-64
2023/04/28 10:01:23;;;;;;;1.45;0.38;;;;;;;17.35;42.19;100698.25;5032449;28;20041;-64
2023/04/28 10:03:52;;;;;;;0.47;0.20;;;;;;;17.56;42.63;100696.19;5025145;28;20366;-65
2023/04/28 10:06:18;;;;;;;0.50;0.50;;;;;;;17.68;41.99;100706.63;5030524;28;20097;-64
2023/04/28 10:08:47;;;;;;;0.98;0.80;;;;;;;17.60;41.06;100701.63;5028280;28;20378;-65
2023/04/28 10:11:15;;;;;;;0.52;0.50;;;;;;;17.29;41.54;100687.03;5044467;28;20048;-64
2023/04/28 10:13:42;;;;;;;1.65;0.68;;;;;;;17.65;42.01;100682.13;5032278;28;20084;-64
2023/04/28 10:16:09;;;;;;;0.75;0.50;;;;;;;17.62;41.42;100683.69;5036536;28;20428;-64
2023/04/28 10:18:35;;;;;;;0.88;0.50;;;;;;;17.61;41.51;100687.63;5026296;28;20397;-66
2023/04/28 10:21:06;;;;;;;1.10;0.40;;;;;;;17.87;41.47;100678.03;5034850;28;20033;-64
2023/04/28 10:24:02;;;;;;;1.85;0.55;;;;;;;17.97;41.34;100671.72;5028938;28;20041;-64
2023/04/28 10:26:54;;;;;;;0.88;0.45;;;;;;;18.09;41.52;100662.25;5034294;28;20090;-65
2023/04/28 10:29:25;;;;;;;0.88;0.50;;;;;;;18.03;41.01;100670.88;5017457;28;20080;-66
2023/04/28 10:32:16;;;;;;;0.63;0.38;;;;;;;18.03;41.15;100657.25;5028380;28;20576;-65
2023/04/28 10:34:42;;;;;;;0.82;0.60;;;;;;;17.63;41.55;100657.25;5008431;28;20733;-65
2023/04/28 10:37:07;;;;;;;0.88;0.30;;;;;;;18.06;40.65;100647.47;5029489;28;20191;-66
2023/04/28 10:39:33;;;;;;;2.00;0.80;;;;;;;17.99;41.45;100659.25;5028901;28;20037;-66
2023/04/28 10:41:59;;;;;;;0.28;0.28;;;;;;;18.25;40.93;100643.41;5024494;28;20033;-65
2023/04/28 10:44:28;;;;;;;1.05;0.50;;;;;;;18.14;41.19;100640.03;5021253;28;20039;-65
2023/04/28 10:47:08;;;;;;;1.08;0.77;;;;;;;18.32;41.21;100638.63;5028436;28;20414;-65
2023/04/28 10:50:10;;;;;;;0.90;0.47;;;;;;;18.33;41.49;100642.91;5022119;28;20037;-63
2023/04/28 10:52:35;;;;;;;0.80;0.77;;;;;;;18.36;40.80;100647.56;4996345;28;20053;-64
2023/04/28 10:55:35;;;;;;;0.90;0.55;;;;;;;18.56;41.57;100636.81;5015495;28;20708;-62
2023/04/28 10:58:16;;;;;;;0.70;0.38;;;;;;;18.88;40.50;100626.25;5027175;28;20041;-62
2023/04/28 11:00:49;;;;;;;1.35;0.60;;;;;;;19.10;40.05;100634.91;5027993;28;20052;-62
2023/04/28 11:03:46;;;;;;;1.30;0.70;;;;;;;18.85;39.42;100635.28;5021990;28;20068;-63
2023/04/28 11:08:55;;;;;;;0.50;0.30;;;;;;;18.98;39.96;100633.53;5039092;28;20048;-66
2023/04/28 11:11:25;;;;;;;0.60;0.40;;;;;;;18.63;39.94;100631.25;5019725;28;20037;-67
2023/04/28 11:14:13;;;;;;;1.10;0.60;;;;;;;18.54;40.37;100628.28;5020180;28;20045;-66
2023/04/28 11:16:49;;;;;;;1.48;0.70;;;;;;;18.42;40.73;100628.78;5020748;28;20034;-66
2023/04/28 11:19:18;;;;;;;0.75;0.63;;;;;;;18.37;41.10;100631.97;5039051;28;20053;-65
2023/04/28 11:21:44;;;;;;;0.60;0.40;;;;;;;18.57;41.48;100621.97;5024771;28;20056;-65
2023/04/28 11:24:10;;;;;;;0.77;0.60;;;;;;;18.67;41.29;100621.88;5032714;28;20030;-65
2023/04/28 11:26:38;;;;;;;1.08;0.50;;;;;;;18.71;40.28;100621.81;5028461;28;20132;-66
2023/04/28 11:29:03;;;;;;;0.63;0.50;;;;;;;18.66;40.17;100619.56;5021997;28;20021;-66
2023/04/28 11:31:29;;;;;;;0.85;0.47;;;;;;;18.59;40.70;100614.94;5019160;28;20504;-66
2023/04/28 11:34:06;;;;;;;1.17;0.60;;;;;;;18.64;40.66;100616.47;5007858;28;20051;-67